sensor_id;sensor_type;location;lat;lon;timestamp;P1;durP1;ratioP1;P2;durP2;ratioP2
5662;SDS011;2854;42.692;23.364;2023-03-16T00:00:54;0.50;;;0.40;;
5662;SDS011;2854;42.692;23.364;2023-03-16T00:03:20;0.50;;;0.47;;
5662;SDS011;2854;42.692;23.364;2023-03-16T00:05:45;0.50;;;0.40;;
5662;SDS011;2854;42.692;23.364;2023-03-16T00:08:12;0.40;;;0.33;;
5662;SDS011;2854;42.692;23.364;2023-03-16T00:10:37;0.50;;;0.40;;
5662;SDS011;2854;42.692;23.364;2023-03-16T00:13:02;0.50;;;0.47;;
5662;SDS011;2854;42.692;23.364;2023-03-16T00:15:28;0.50;;;0.30;;
5662;SDS011;2854;42.692;23.364;2023-03-16T00:17:53;0.50;;;0.43;;
5662;SDS011;2854;42.692;23.364;2023-03-16T00:20:19;0.50;;;0.40;;
5662;SDS011;2854;42.692;23.364;2023-03-16T00:22:44;0.57;;;0.50;;
5662;SDS011;2854;42.692;23.364;2023-03-16T00:25:10;0.53;;;0.50;;
5662;SDS011;2854;42.692;23.364;2023-03-16T00:27:36;0.50;;;0.40;;
5662;SDS011;2854;42.692;23.364;2023-03-16T00:30:01;0.50;;;0.40;;
5662;SDS011;2854;42.692;23.364;2023-03-16T00:32:30;0.70;;;0.70;;
5662;SDS011;2854;42.692;23.364;2023-03-16T00:34:56;0.77;;;0.77;;
5662;SDS011;2854;42.692;23.364;2023-03-16T00:37:22;0.53;;;0.50;;
5662;SDS011;2854;42.692;23.364;2023-03-16T00:39:48;0.53;;;0.53;;
5662;SDS011;2854;42.692;23.364;2023-03-16T00:42:14;0.60;;;0.60;;
5662;SDS011;2854;42.692;23.364;2023-03-16T00:44:39;0.60;;;0.43;;
5662;SDS011;2854;42.692;23.364;2023-03-16T00:47:06;0.63;;;0.63;;
5662;SDS011;2854;42.692;23.364;2023-03-16T00:49:32;0.67;;;0.60;;
5662;SDS011;2854;42.692;23.364;2023-03-16T00:52:02;0.50;;;0.30;;
5662;SDS011;2854;42.692;23.364;2023-03-16T00:54:28;1.00;;;0.73;;
5662;SDS011;2854;42.692;23.364;2023-03-16T00:56:53;0.50;;;0.50;;
5662;SDS011;2854;42.692;23.364;2023-03-16T00:59:18;0.50;;;0.50;;
5662;SDS011;2854;42.692;23.364;2023-03-16T01:01:45;0.50;;;0.40;;
5662;SDS011;2854;42.692;23.364;2023-03-16T01:04:11;0.60;;;0.40;;
5662;SDS011;2854;42.692;23.364;2023-03-16T01:06:36;0.50;;;0.30;;
5662;SDS011;2854;42.692;23.364;2023-03-16T01:09:01;0.50;;;0.47;;
5662;SDS011;2854;42.692;23.364;2023-03-16T01:11:29;1.23;;;1.10;;
5662;SDS011;2854;42.692;23.364;2023-03-16T01:13:57;0.83;;;0.70;;
5662;SDS011;2854;42.692;23.364;2023-03-16T01:16:23;0.50;;;0.50;;
5662;SDS011;2854;42.692;23.364;2023-03-16T01:18:48;0.80;;;0.50;;
5662;SDS011;2854;42.692;23.364;2023-03-16T01:21:14;0.57;;;0.50;;
5662;SDS011;2854;42.692;23.364;2023-03-16T01:23:39;0.50;;;0.50;;
5662;SDS011;2854;42.692;23.364;2023-03-16T01:26:04;0.60;;;0.60;;
5662;SDS011;2854;42.692;23.364;2023-03-16T01:28:30;0.80;;;0.50;;
5662;SDS011;2854;42.692;23.364;2023-03-16T01:31:00;0.80;;;0.70;;
5662;SDS011;2854;42.692;23.364;2023-03-16T01:33:26;2.80;;;0.70;;
5662;SDS011;2854;42.692;23.364;2023-03-16T01:35:55;0.90;;;0.60;;
5662;SDS011;2854;42.692;23.364;2023-03-16T01:38:21;0.50;;;0.40;;
5662;SDS011;2854;42.692;23.364;2023-03-16T01:40:50;0.50;;;0.43;;
5662;SDS011;2854;42.692;23.364;2023-03-16T01:43:19;0.60;;;0.53;;
5662;SDS011;2854;42.692;23.364;2023-03-16T01:48:30;0.60;;;0.60;;
5662;SDS011;2854;42.692;23.364;2023-03-16T01:51:01;0.50;;;0.40;;
5662;SDS011;2854;42.692;23.364;2023-03-16T01:53:27;0.50;;;0.40;;
5662;SDS011;2854;42.692;23.364;2023-03-16T01:55:52;0.60;;;0.50;;
5662;SDS011;2854;42.692;23.364;2023-03-16T01:58:19;0.50;;;0.47;;
5662;SDS011;2854;42.692;23.364;2023-03-16T02:00:44;0.60;;;0.40;;
5662;SDS011;2854;42.692;23.364;2023-03-16T02:03:14;0.90;;;0.67;;
5662;SDS011;2854;42.692;23.364;2023-03-16T02:05:45;0.50;;;0.30;;
5662;SDS011;2854;42.692;23.364;2023-03-16T02:08:12;0.50;;;0.30;;
5662;SDS011;2854;42.692;23.364;2023-03-16T02:10:38;0.43;;;0.33;;
5662;SDS011;2854;42.692;23.364;2023-03-16T02:13:04;0.80;;;0.60;;
5662;SDS011;2854;42.692;23.364;2023-03-16T02:15:29;0.60;;;0.60;;
5662;SDS011;2854;42.692;23.364;2023-03-16T02:17:55;0.40;;;0.30;;
5662;SDS011;2854;42.692;23.364;2023-03-16T02:22:55;0.80;;;0.60;;
5662;SDS011;2854;42.692;23.364;2023-03-16T02:30:58;0.47;;;0.40;;
5662;SDS011;2854;42.692;23.364;2023-03-16T02:33:23;0.87;;;0.50;;
5662;SDS011;2854;42.692;23.364;2023-03-16T02:35:49;0.60;;;0.50;;
5662;SDS011;2854;42.692;23.364;2023-03-16T02:38:14;0.50;;;0.40;;
5662;SDS011;2854;42.692;23.364;2023-03-16T02:40:40;0.50;;;0.40;;
5662;SDS011;2854;42.692;23.364;2023-03-16T02:45:40;0.50;;;0.40;;
5662;SDS011;2854;42.692;23.364;2023-03-16T02:48:14;0.80;;;0.80;;
5662;SDS011;2854;42.692;23.364;2023-03-16T02:50:44;0.50;;;0.40;;
5662;SDS011;2854;42.692;23.364;2023-03-16T02:53:11;0.50;;;0.40;;
5662;SDS011;2854;42.692;23.364;2023-03-16T02:55:37;0.50;;;0.40;;
5662;SDS011;2854;42.692;23.364;2023-03-16T02:58:02;0.50;;;0.40;;
5662;SDS011;2854;42.692;23.364;2023-03-16T03:00:27;0.50;;;0.40;;
5662;SDS011;2854;42.692;23.364;2023-03-16T03:02:53;0.60;;;0.50;;
5662;SDS011;2854;42.692;23.364;2023-03-16T03:05:18;0.57;;;0.53;;
5662;SDS011;2854;42.692;23.364;2023-03-16T03:07:45;0.50;;;0.40;;
5662;SDS011;2854;42.692;23.364;2023-03-16T03:10:10;0.70;;;0.67;;
5662;SDS011;2854;42.692;23.364;2023-03-16T03:12:35;0.60;;;0.50;;
5662;SDS011;2854;42.692;23.364;2023-03-16T03:15:01;0.50;;;0.40;;
5662;SDS011;2854;42.692;23.364;2023-03-16T03:17:26;0.60;;;0.50;;
5662;SDS011;2854;42.692;23.364;2023-03-16T03:19:56;0.90;;;0.60;;
5662;SDS011;2854;42.692;23.364;2023-03-16T03:22:21;0.93;;;0.50;;
5662;SDS011;2854;42.692;23.364;2023-03-16T03:24:46;0.93;;;0.40;;
5662;SDS011;2854;42.692;23.364;2023-03-16T03:27:11;0.50;;;0.30;;
5662;SDS011;2854;42.692;23.364;2023-03-16T03:29:39;0.50;;;0.40;;
5662;SDS011;2854;42.692;23.364;2023-03-16T03:32:06;0.60;;;0.40;;
5662;SDS011;2854;42.692;23.364;2023-03-16T03:34:32;0.60;;;0.50;;
5662;SDS011;2854;42.692;23.364;2023-03-16T03:36:58;0.50;;;0.30;;
5662;SDS011;2854;42.692;23.364;2023-03-16T03:39:23;0.50;;;0.50;;
5662;SDS011;2854;42.692;23.364;2023-03-16T03:41:50;1.47;;;0.30;;
5662;SDS011;2854;42.692;23.364;2023-03-16T03:44:19;0.40;;;0.30;;
5662;SDS011;2854;42.692;23.364;2023-03-16T03:46:47;0.40;;;0.40;;
5662;SDS011;2854;42.692;23.364;2023-03-16T03:49:12;0.50;;;0.40;;
5662;SDS011;2854;42.692;23.364;2023-03-16T03:51:38;0.50;;;0.50;;
5662;SDS011;2854;42.692;23.364;2023-03-16T03:54:05;0.50;;;0.30;;
5662;SDS011;2854;42.692;23.364;2023-03-16T03:56:32;0.40;;;0.30;;
5662;SDS011;2854;42.692;23.364;2023-03-16T03:58:57;0.50;;;0.30;;
5662;SDS011;2854;42.692;23.364;2023-03-16T04:01:22;0.50;;;0.40;;
5662;SDS011;2854;42.692;23.364;2023-03-16T04:03:47;0.40;;;0.30;;
5662;SDS011;2854;42.692;23.364;2023-03-16T04:06:13;0.50;;;0.40;;
5662;SDS011;2854;42.692;23.364;2023-03-16T04:08:38;0.40;;;0.40;;
5662;SDS011;2854;42.692;23.364;2023-03-16T04:11:03;0.50;;;0.40;;
5662;SDS011;2854;42.692;23.364;2023-03-16T04:13:29;0.60;;;0.40;;
5662;SDS011;2854;42.692;23.364;2023-03-16T04:15:57;1.20;;;0.37;;
5662;SDS011;2854;42.692;23.364;2023-03-16T04:18:23;0.60;;;0.60;;
5662;SDS011;2854;42.692;23.364;2023-03-16T04:20:51;0.50;;;0.40;;
5662;SDS011;2854;42.692;23.364;2023-03-16T04:23:20;0.60;;;0.50;;
5662;SDS011;2854;42.692;23.364;2023-03-16T04:25:45;0.60;;;0.60;;
5662;SDS011;2854;42.692;23.364;2023-03-16T04:28:11;0.50;;;0.40;;
5662;SDS011;2854;42.692;23.364;2023-03-16T04:30:37;0.50;;;0.50;;
5662;SDS011;2854;42.692;23.364;2023-03-16T04:33:03;0.50;;;0.50;;
5662;SDS011;2854;42.692;23.364;2023-03-16T04:35:28;0.60;;;0.60;;
5662;SDS011;2854;42.692;23.364;2023-03-16T04:37:58;0.83;;;0.30;;
5662;SDS011;2854;42.692;23.364;2023-03-16T04:40:23;0.60;;;0.60;;
5662;SDS011;2854;42.692;23.364;2023-03-16T04:42:50;0.50;;;0.40;;
5662;SDS011;2854;42.692;23.364;2023-03-16T04:45:15;0.83;;;0.43;;
5662;SDS011;2854;42.692;23.364;2023-03-16T04:47:41;0.50;;;0.40;;
5662;SDS011;2854;42.692;23.364;2023-03-16T04:50:06;0.53;;;0.53;;
5662;SDS011;2854;42.692;23.364;2023-03-16T04:52:32;0.40;;;0.30;;
5662;SDS011;2854;42.692;23.364;2023-03-16T04:54:58;2.53;;;0.57;;
5662;SDS011;2854;42.692;23.364;2023-03-16T04:57:23;0.63;;;0.63;;
5662;SDS011;2854;42.692;23.364;2023-03-16T04:59:49;0.40;;;0.20;;
5662;SDS011;2854;42.692;23.364;2023-03-16T05:02:15;0.50;;;0.40;;
5662;SDS011;2854;42.692;23.364;2023-03-16T05:04:41;0.60;;;0.60;;
5662;SDS011;2854;42.692;23.364;2023-03-16T05:07:07;0.40;;;0.40;;
5662;SDS011;2854;42.692;23.364;2023-03-16T05:09:32;0.70;;;0.70;;
5662;SDS011;2854;42.692;23.364;2023-03-16T05:11:58;0.50;;;0.40;;
5662;SDS011;2854;42.692;23.364;2023-03-16T05:14:24;0.50;;;0.40;;
5662;SDS011;2854;42.692;23.364;2023-03-16T05:16:50;0.40;;;0.30;;
5662;SDS011;2854;42.692;23.364;2023-03-16T05:19:16;0.50;;;0.50;;
5662;SDS011;2854;42.692;23.364;2023-03-16T05:21:41;0.50;;;0.43;;
5662;SDS011;2854;42.692;23.364;2023-03-16T05:24:07;0.60;;;0.60;;
5662;SDS011;2854;42.692;23.364;2023-03-16T05:26:32;0.63;;;0.50;;
5662;SDS011;2854;42.692;23.364;2023-03-16T05:28:58;0.40;;;0.30;;
5662;SDS011;2854;42.692;23.364;2023-03-16T05:31:23;0.60;;;0.60;;
5662;SDS011;2854;42.692;23.364;2023-03-16T05:33:50;0.93;;;0.93;;
5662;SDS011;2854;42.692;23.364;2023-03-16T05:36:18;0.80;;;0.47;;
5662;SDS011;2854;42.692;23.364;2023-03-16T05:38:45;0.50;;;0.40;;
5662;SDS011;2854;42.692;23.364;2023-03-16T05:41:11;0.40;;;0.40;;
5662;SDS011;2854;42.692;23.364;2023-03-16T05:43:36;1.23;;;0.60;;
5662;SDS011;2854;42.692;23.364;2023-03-16T05:46:01;0.90;;;0.60;;
5662;SDS011;2854;42.692;23.364;2023-03-16T05:48:27;0.40;;;0.40;;
5662;SDS011;2854;42.692;23.364;2023-03-16T05:50:52;0.40;;;0.40;;
5662;SDS011;2854;42.692;23.364;2023-03-16T05:53:18;0.40;;;0.30;;
5662;SDS011;2854;42.692;23.364;2023-03-16T05:55:43;0.63;;;0.63;;
5662;SDS011;2854;42.692;23.364;2023-03-16T05:58:09;0.70;;;0.50;;
5662;SDS011;2854;42.692;23.364;2023-03-16T06:00:35;2.47;;;2.10;;
5662;SDS011;2854;42.692;23.364;2023-03-16T06:03:03;0.70;;;0.70;;
5662;SDS011;2854;42.692;23.364;2023-03-16T06:05:28;0.50;;;0.50;;
5662;SDS011;2854;42.692;23.364;2023-03-16T06:07:54;0.60;;;0.60;;
5662;SDS011;2854;42.692;23.364;2023-03-16T06:10:19;0.70;;;0.50;;
5662;SDS011;2854;42.692;23.364;2023-03-16T06:12:45;0.50;;;0.43;;
5662;SDS011;2854;42.692;23.364;2023-03-16T06:15:10;2.23;;;0.97;;
5662;SDS011;2854;42.692;23.364;2023-03-16T06:17:36;0.50;;;0.40;;
5662;SDS011;2854;42.692;23.364;2023-03-16T06:20:02;0.70;;;0.43;;
5662;SDS011;2854;42.692;23.364;2023-03-16T06:22:29;1.27;;;0.50;;
5662;SDS011;2854;42.692;23.364;2023-03-16T06:24:54;0.60;;;0.60;;
5662;SDS011;2854;42.692;23.364;2023-03-16T06:27:19;1.47;;;1.20;;
5662;SDS011;2854;42.692;23.364;2023-03-16T06:29:45;0.73;;;0.73;;
5662;SDS011;2854;42.692;23.364;2023-03-16T06:32:11;0.87;;;0.53;;
5662;SDS011;2854;42.692;23.364;2023-03-16T06:34:37;0.80;;;0.80;;
5662;SDS011;2854;42.692;23.364;2023-03-16T06:37:02;0.70;;;0.70;;
5662;SDS011;2854;42.692;23.364;2023-03-16T06:39:28;0.60;;;0.60;;
5662;SDS011;2854;42.692;23.364;2023-03-16T06:41:53;0.73;;;0.73;;
5662;SDS011;2854;42.692;23.364;2023-03-16T06:44:18;0.50;;;0.50;;
5662;SDS011;2854;42.692;23.364;2023-03-16T06:46:44;0.60;;;0.57;;
5662;SDS011;2854;42.692;23.364;2023-03-16T06:49:09;0.90;;;0.60;;
5662;SDS011;2854;42.692;23.364;2023-03-16T06:51:35;0.60;;;0.50;;
5662;SDS011;2854;42.692;23.364;2023-03-16T06:54:00;1.07;;;0.80;;
5662;SDS011;2854;42.692;23.364;2023-03-16T06:56:25;0.83;;;0.83;;
5662;SDS011;2854;42.692;23.364;2023-03-16T06:58:51;0.50;;;0.50;;
5662;SDS011;2854;42.692;23.364;2023-03-16T07:01:17;1.63;;;0.80;;
5662;SDS011;2854;42.692;23.364;2023-03-16T07:03:42;0.60;;;0.60;;
5662;SDS011;2854;42.692;23.364;2023-03-16T07:06:07;0.50;;;0.50;;
5662;SDS011;2854;42.692;23.364;2023-03-16T07:08:33;1.20;;;0.70;;
5662;SDS011;2854;42.692;23.364;2023-03-16T07:10:58;0.93;;;0.83;;
5662;SDS011;2854;42.692;23.364;2023-03-16T07:13:24;0.53;;;0.53;;
5662;SDS011;2854;42.692;23.364;2023-03-16T07:15:50;1.10;;;1.10;;
5662;SDS011;2854;42.692;23.364;2023-03-16T07:18:16;0.80;;;0.70;;
5662;SDS011;2854;42.692;23.364;2023-03-16T07:20:41;1.10;;;1.10;;
5662;SDS011;2854;42.692;23.364;2023-03-16T07:23:06;0.67;;;0.67;;
5662;SDS011;2854;42.692;23.364;2023-03-16T07:25:32;3.07;;;0.90;;
5662;SDS011;2854;42.692;23.364;2023-03-16T07:27:57;0.60;;;0.60;;
5662;SDS011;2854;42.692;23.364;2023-03-16T07:30:22;0.80;;;0.80;;
5662;SDS011;2854;42.692;23.364;2023-03-16T07:32:49;0.63;;;0.63;;
5662;SDS011;2854;42.692;23.364;2023-03-16T07:35:14;0.90;;;0.90;;
5662;SDS011;2854;42.692;23.364;2023-03-16T07:37:41;2.50;;;1.57;;
5662;SDS011;2854;42.692;23.364;2023-03-16T07:40:06;1.93;;;1.00;;
5662;SDS011;2854;42.692;23.364;2023-03-16T07:42:33;2.73;;;1.10;;
5662;SDS011;2854;42.692;23.364;2023-03-16T07:44:59;1.00;;;0.80;;
5662;SDS011;2854;42.692;23.364;2023-03-16T07:47:25;1.10;;;1.03;;
5662;SDS011;2854;42.692;23.364;2023-03-16T07:49:51;2.00;;;1.03;;
5662;SDS011;2854;42.692;23.364;2023-03-16T07:52:16;1.13;;;0.87;;
5662;SDS011;2854;42.692;23.364;2023-03-16T07:54:42;3.07;;;0.90;;
5662;SDS011;2854;42.692;23.364;2023-03-16T07:57:08;1.77;;;0.73;;
5662;SDS011;2854;42.692;23.364;2023-03-16T07:59:33;1.17;;;0.63;;
5662;SDS011;2854;42.692;23.364;2023-03-16T08:01:58;1.17;;;1.00;;
5662;SDS011;2854;42.692;23.364;2023-03-16T08:04:23;0.67;;;0.67;;
5662;SDS011;2854;42.692;23.364;2023-03-16T08:06:49;0.80;;;0.80;;
5662;SDS011;2854;42.692;23.364;2023-03-16T08:09:16;1.63;;;1.17;;
5662;SDS011;2854;42.692;23.364;2023-03-16T08:11:41;1.60;;;1.13;;
5662;SDS011;2854;42.692;23.364;2023-03-16T08:14:07;0.77;;;0.77;;
5662;SDS011;2854;42.692;23.364;2023-03-16T08:16:32;2.20;;;0.80;;
5662;SDS011;2854;42.692;23.364;2023-03-16T08:18:57;0.60;;;0.50;;
5662;SDS011;2854;42.692;23.364;2023-03-16T08:21:23;1.07;;;0.80;;
5662;SDS011;2854;42.692;23.364;2023-03-16T08:23:49;0.50;;;0.47;;
5662;SDS011;2854;42.692;23.364;2023-03-16T08:26:15;0.70;;;0.47;;
5662;SDS011;2854;42.692;23.364;2023-03-16T08:28:41;0.60;;;0.50;;
5662;SDS011;2854;42.692;23.364;2023-03-16T08:31:06;1.30;;;0.80;;
5662;SDS011;2854;42.692;23.364;2023-03-16T08:33:32;1.00;;;0.90;;
5662;SDS011;2854;42.692;23.364;2023-03-16T08:35:58;0.83;;;0.70;;
5662;SDS011;2854;42.692;23.364;2023-03-16T08:38:24;1.17;;;0.80;;
5662;SDS011;2854;42.692;23.364;2023-03-16T08:40:49;0.70;;;0.70;;
5662;SDS011;2854;42.692;23.364;2023-03-16T08:43:15;0.93;;;0.90;;
5662;SDS011;2854;42.692;23.364;2023-03-16T08:45:43;0.50;;;0.50;;
5662;SDS011;2854;42.692;23.364;2023-03-16T08:48:08;0.80;;;0.80;;
5662;SDS011;2854;42.692;23.364;2023-03-16T08:50:37;17.97;;;1.00;;
5662;SDS011;2854;42.692;23.364;2023-03-16T08:53:03;3.27;;;2.40;;
5662;SDS011;2854;42.692;23.364;2023-03-16T08:55:28;0.80;;;0.80;;
5662;SDS011;2854;42.692;23.364;2023-03-16T08:57:53;3.37;;;1.77;;
5662;SDS011;2854;42.692;23.364;2023-03-16T09:00:19;1.13;;;1.13;;
5662;SDS011;2854;42.692;23.364;2023-03-16T09:02:44;0.70;;;0.70;;
5662;SDS011;2854;42.692;23.364;2023-03-16T09:05:10;1.50;;;1.33;;
5662;SDS011;2854;42.692;23.364;2023-03-16T09:07:36;0.57;;;0.57;;
5662;SDS011;2854;42.692;23.364;2023-03-16T09:10:03;0.73;;;0.57;;
5662;SDS011;2854;42.692;23.364;2023-03-16T09:12:30;0.80;;;0.63;;
5662;SDS011;2854;42.692;23.364;2023-03-16T09:14:55;1.20;;;1.10;;
5662;SDS011;2854;42.692;23.364;2023-03-16T09:17:20;1.00;;;0.90;;
5662;SDS011;2854;42.692;23.364;2023-03-16T09:19:46;2.57;;;1.73;;
5662;SDS011;2854;42.692;23.364;2023-03-16T09:22:12;1.60;;;1.27;;
5662;SDS011;2854;42.692;23.364;2023-03-16T09:24:37;1.37;;;1.27;;
5662;SDS011;2854;42.692;23.364;2023-03-16T09:27:02;0.80;;;0.80;;
5662;SDS011;2854;42.692;23.364;2023-03-16T09:29:29;0.70;;;0.70;;
5662;SDS011;2854;42.692;23.364;2023-03-16T09:31:54;0.50;;;0.40;;
5662;SDS011;2854;42.692;23.364;2023-03-16T09:34:19;2.30;;;2.13;;
5662;SDS011;2854;42.692;23.364;2023-03-16T09:36:45;0.83;;;0.83;;
5662;SDS011;2854;42.692;23.364;2023-03-16T09:39:11;1.27;;;0.87;;
5662;SDS011;2854;42.692;23.364;2023-03-16T09:44:20;3.17;;;1.10;;
5662;SDS011;2854;42.692;23.364;2023-03-16T09:46:47;1.43;;;0.87;;
5662;SDS011;2854;42.692;23.364;2023-03-16T09:49:15;0.90;;;0.90;;
5662;SDS011;2854;42.692;23.364;2023-03-16T09:51:43;0.73;;;0.50;;
5662;SDS011;2854;42.692;23.364;2023-03-16T09:54:35;2.13;;;1.23;;
5662;SDS011;2854;42.692;23.364;2023-03-16T09:56:58;4.73;;;1.67;;
5662;SDS011;2854;42.692;23.364;2023-03-16T09:59:24;1.50;;;1.40;;
5662;SDS011;2854;42.692;23.364;2023-03-16T10:09:56;1.27;;;1.17;;
5662;SDS011;2854;42.692;23.364;2023-03-16T10:12:20;1.27;;;1.00;;
5662;SDS011;2854;42.692;23.364;2023-03-16T10:14:54;1.77;;;1.20;;
5662;SDS011;2854;42.692;23.364;2023-03-16T10:17:28;0.80;;;0.70;;
5662;SDS011;2854;42.692;23.364;2023-03-16T10:19:56;0.50;;;0.50;;
5662;SDS011;2854;42.692;23.364;2023-03-16T10:22:24;0.60;;;0.60;;
5662;SDS011;2854;42.692;23.364;2023-03-16T10:27:32;1.20;;;1.10;;
5662;SDS011;2854;42.692;23.364;2023-03-16T10:29:58;1.53;;;1.27;;
5662;SDS011;2854;42.692;23.364;2023-03-16T10:32:29;1.23;;;1.13;;
5662;SDS011;2854;42.692;23.364;2023-03-16T10:34:56;2.20;;;1.93;;
5662;SDS011;2854;42.692;23.364;2023-03-16T10:37:22;1.80;;;1.70;;
5662;SDS011;2854;42.692;23.364;2023-03-16T10:39:48;1.40;;;1.30;;
5662;SDS011;2854;42.692;23.364;2023-03-16T10:42:14;1.33;;;1.13;;
5662;SDS011;2854;42.692;23.364;2023-03-16T10:44:40;0.60;;;0.60;;
5662;SDS011;2854;42.692;23.364;2023-03-16T10:47:06;1.27;;;1.17;;
5662;SDS011;2854;42.692;23.364;2023-03-16T10:49:36;1.87;;;1.77;;
5662;SDS011;2854;42.692;23.364;2023-03-16T10:52:28;1.73;;;1.27;;
5662;SDS011;2854;42.692;23.364;2023-03-16T10:55:05;3.90;;;2.67;;
5662;SDS011;2854;42.692;23.364;2023-03-16T10:57:32;1.13;;;1.03;;
5662;SDS011;2854;42.692;23.364;2023-03-16T11:02:53;0.93;;;0.93;;
5662;SDS011;2854;42.692;23.364;2023-03-16T11:08:33;2.60;;;1.80;;
5662;SDS011;2854;42.692;23.364;2023-03-16T11:10:37;1.77;;;1.70;;
5662;SDS011;2854;42.692;23.364;2023-03-16T11:13:12;1.37;;;1.27;;
5662;SDS011;2854;42.692;23.364;2023-03-16T11:16:00;6.57;;;1.43;;
5662;SDS011;2854;42.692;23.364;2023-03-16T11:20:51;0.87;;;0.87;;
5662;SDS011;2854;42.692;23.364;2023-03-16T11:23:18;1.00;;;0.93;;
5662;SDS011;2854;42.692;23.364;2023-03-16T11:25:46;1.13;;;1.13;;
5662;SDS011;2854;42.692;23.364;2023-03-16T11:33:25;1.77;;;1.43;;
5662;SDS011;2854;42.692;23.364;2023-03-16T11:35:53;0.60;;;0.60;;
5662;SDS011;2854;42.692;23.364;2023-03-16T11:41:08;1.90;;;1.80;;
5662;SDS011;2854;42.692;23.364;2023-03-16T11:46:19;2.80;;;2.00;;
5662;SDS011;2854;42.692;23.364;2023-03-16T11:54:05;1.50;;;1.40;;
5662;SDS011;2854;42.692;23.364;2023-03-16T11:56:38;2.00;;;1.80;;
5662;SDS011;2854;42.692;23.364;2023-03-16T11:59:29;1.97;;;1.83;;
5662;SDS011;2854;42.692;23.364;2023-03-16T12:04:25;1.77;;;1.67;;
5662;SDS011;2854;42.692;23.364;2023-03-16T12:12:01;3.90;;;1.53;;
5662;SDS011;2854;42.692;23.364;2023-03-16T12:14:31;2.27;;;1.83;;
5662;SDS011;2854;42.692;23.364;2023-03-16T12:16:59;1.47;;;1.37;;
5662;SDS011;2854;42.692;23.364;2023-03-16T12:22:07;3.10;;;1.90;;
5662;SDS011;2854;42.692;23.364;2023-03-16T12:24:43;2.33;;;2.13;;
5662;SDS011;2854;42.692;23.364;2023-03-16T12:27:13;2.23;;;2.03;;
5662;SDS011;2854;42.692;23.364;2023-03-16T12:29:50;1.93;;;1.83;;
5662;SDS011;2854;42.692;23.364;2023-03-16T12:37:56;4.13;;;1.50;;
5662;SDS011;2854;42.692;23.364;2023-03-16T12:45:29;2.53;;;2.37;;
5662;SDS011;2854;42.692;23.364;2023-03-16T12:50:30;1.70;;;1.57;;
5662;SDS011;2854;42.692;23.364;2023-03-16T12:52:55;2.40;;;2.20;;
5662;SDS011;2854;42.692;23.364;2023-03-16T12:55:25;1.87;;;1.73;;
5662;SDS011;2854;42.692;23.364;2023-03-16T12:57:57;5.00;;;2.40;;
5662;SDS011;2854;42.692;23.364;2023-03-16T13:00:31;1.80;;;1.63;;
5662;SDS011;2854;42.692;23.364;2023-03-16T13:02:58;1.83;;;1.53;;
5662;SDS011;2854;42.692;23.364;2023-03-16T13:05:32;3.67;;;2.67;;
5662;SDS011;2854;42.692;23.364;2023-03-16T13:10:29;3.43;;;1.70;;
5662;SDS011;2854;42.692;23.364;2023-03-16T13:12:55;1.93;;;1.80;;
5662;SDS011;2854;42.692;23.364;2023-03-16T13:15:31;1.30;;;1.20;;
5662;SDS011;2854;42.692;23.364;2023-03-16T13:28:22;3.43;;;2.23;;
5662;SDS011;2854;42.692;23.364;2023-03-16T13:30:53;2.20;;;2.10;;
5662;SDS011;2854;42.692;23.364;2023-03-16T13:33:28;3.33;;;3.03;;
5662;SDS011;2854;42.692;23.364;2023-03-16T13:35:55;3.40;;;3.10;;
5662;SDS011;2854;42.692;23.364;2023-03-16T13:38:22;2.97;;;2.77;;
5662;SDS011;2854;42.692;23.364;2023-03-16T13:40:52;4.20;;;2.10;;
5662;SDS011;2854;42.692;23.364;2023-03-16T13:43:26;5.30;;;2.40;;
5662;SDS011;2854;42.692;23.364;2023-03-16T13:46:01;3.07;;;2.83;;
5662;SDS011;2854;42.692;23.364;2023-03-16T13:48:36;3.87;;;3.57;;
5662;SDS011;2854;42.692;23.364;2023-03-16T13:51:04;3.13;;;2.57;;
5662;SDS011;2854;42.692;23.364;2023-03-16T13:53:39;3.37;;;3.07;;
5662;SDS011;2854;42.692;23.364;2023-03-16T13:56:04;4.50;;;2.73;;
5662;SDS011;2854;42.692;23.364;2023-03-16T13:58:30;2.80;;;2.63;;
5662;SDS011;2854;42.692;23.364;2023-03-16T14:00:57;4.73;;;3.50;;
5662;SDS011;2854;42.692;23.364;2023-03-16T14:03:28;2.47;;;2.23;;
5662;SDS011;2854;42.692;23.364;2023-03-16T14:05:55;2.57;;;2.37;;
5662;SDS011;2854;42.692;23.364;2023-03-16T14:08:21;2.93;;;2.70;;
5662;SDS011;2854;42.692;23.364;2023-03-16T14:10:47;5.53;;;4.13;;
5662;SDS011;2854;42.692;23.364;2023-03-16T14:16:24;2.87;;;2.20;;
5662;SDS011;2854;42.692;23.364;2023-03-16T14:18:43;2.70;;;2.50;;
5662;SDS011;2854;42.692;23.364;2023-03-16T14:21:13;3.80;;;3.43;;
5662;SDS011;2854;42.692;23.364;2023-03-16T14:23:42;8.77;;;3.50;;
5662;SDS011;2854;42.692;23.364;2023-03-16T14:26:12;3.97;;;2.07;;
5662;SDS011;2854;42.692;23.364;2023-03-16T14:28:37;3.27;;;2.60;;
5662;SDS011;2854;42.692;23.364;2023-03-16T14:31:08;3.23;;;3.03;;
5662;SDS011;2854;42.692;23.364;2023-03-16T14:33:36;2.70;;;2.47;;
5662;SDS011;2854;42.692;23.364;2023-03-16T14:36:37;4.90;;;3.07;;
5662;SDS011;2854;42.692;23.364;2023-03-16T14:38:55;4.60;;;4.27;;
5662;SDS011;2854;42.692;23.364;2023-03-16T14:41:22;2.33;;;2.13;;
5662;SDS011;2854;42.692;23.364;2023-03-16T14:43:55;3.70;;;3.50;;
5662;SDS011;2854;42.692;23.364;2023-03-16T14:46:31;3.43;;;3.13;;
5662;SDS011;2854;42.692;23.364;2023-03-16T14:49:07;3.13;;;2.83;;
5662;SDS011;2854;42.692;23.364;2023-03-16T14:51:36;5.87;;;3.57;;
5662;SDS011;2854;42.692;23.364;2023-03-16T14:54:04;4.27;;;3.33;;
5662;SDS011;2854;42.692;23.364;2023-03-16T14:56:34;6.40;;;3.13;;
5662;SDS011;2854;42.692;23.364;2023-03-16T14:58:59;3.97;;;2.60;;
5662;SDS011;2854;42.692;23.364;2023-03-16T15:01:25;4.13;;;3.73;;
5662;SDS011;2854;42.692;23.364;2023-03-16T15:03:50;4.87;;;4.30;;
5662;SDS011;2854;42.692;23.364;2023-03-16T15:06:16;6.60;;;3.10;;
5662;SDS011;2854;42.692;23.364;2023-03-16T15:08:42;5.07;;;3.70;;
5662;SDS011;2854;42.692;23.364;2023-03-16T15:11:09;4.67;;;3.73;;
5662;SDS011;2854;42.692;23.364;2023-03-16T15:13:34;4.70;;;4.07;;
5662;SDS011;2854;42.692;23.364;2023-03-16T15:16:06;3.77;;;3.50;;
5662;SDS011;2854;42.692;23.364;2023-03-16T15:18:32;8.97;;;4.40;;
5662;SDS011;2854;42.692;23.364;2023-03-16T15:20:58;4.77;;;3.00;;
5662;SDS011;2854;42.692;23.364;2023-03-16T15:23:24;4.60;;;2.90;;
5662;SDS011;2854;42.692;23.364;2023-03-16T15:25:50;3.73;;;3.43;;
5662;SDS011;2854;42.692;23.364;2023-03-16T15:28:21;6.57;;;4.60;;
5662;SDS011;2854;42.692;23.364;2023-03-16T15:30:52;4.50;;;3.77;;
5662;SDS011;2854;42.692;23.364;2023-03-16T15:33:17;3.90;;;3.60;;
5662;SDS011;2854;42.692;23.364;2023-03-16T15:35:43;6.13;;;3.70;;
5662;SDS011;2854;42.692;23.364;2023-03-16T15:38:13;7.50;;;4.57;;
5662;SDS011;2854;42.692;23.364;2023-03-16T15:40:38;5.00;;;3.50;;
5662;SDS011;2854;42.692;23.364;2023-03-16T15:43:08;5.73;;;3.77;;
5662;SDS011;2854;42.692;23.364;2023-03-16T15:45:34;4.30;;;3.07;;
5662;SDS011;2854;42.692;23.364;2023-03-16T15:48:00;3.13;;;2.93;;
5662;SDS011;2854;42.692;23.364;2023-03-16T15:50:25;4.43;;;3.23;;
5662;SDS011;2854;42.692;23.364;2023-03-16T15:52:52;2.73;;;2.50;;
5662;SDS011;2854;42.692;23.364;2023-03-16T15:55:20;3.87;;;2.60;;
5662;SDS011;2854;42.692;23.364;2023-03-16T15:57:50;5.87;;;3.60;;
5662;SDS011;2854;42.692;23.364;2023-03-16T16:00:22;5.73;;;3.93;;
5662;SDS011;2854;42.692;23.364;2023-03-16T16:02:49;5.47;;;4.20;;
5662;SDS011;2854;42.692;23.364;2023-03-16T16:05:14;3.53;;;3.23;;
5662;SDS011;2854;42.692;23.364;2023-03-16T16:07:40;4.07;;;3.67;;
5662;SDS011;2854;42.692;23.364;2023-03-16T16:10:06;3.73;;;3.40;;
5662;SDS011;2854;42.692;23.364;2023-03-16T16:12:31;8.40;;;5.07;;
5662;SDS011;2854;42.692;23.364;2023-03-16T16:14:57;5.47;;;4.13;;
5662;SDS011;2854;42.692;23.364;2023-03-16T16:17:22;6.27;;;4.93;;
5662;SDS011;2854;42.692;23.364;2023-03-16T16:19:53;8.53;;;4.47;;
5662;SDS011;2854;42.692;23.364;2023-03-16T16:22:19;6.60;;;3.13;;
5662;SDS011;2854;42.692;23.364;2023-03-16T16:24:44;3.03;;;2.83;;
5662;SDS011;2854;42.692;23.364;2023-03-16T16:27:10;4.00;;;3.60;;
5662;SDS011;2854;42.692;23.364;2023-03-16T16:29:38;16.20;;;3.53;;